sensor_id;sensor_type;location;lat;lon;timestamp;P1;durP1;ratioP1;P2;durP2;ratioP2
40945;SDS011;55635;50.264;11.918;2023-07-13T00:00:15;1.17;;;1.15;;
40945;SDS011;55635;50.264;11.918;2023-07-13T00:02:56;1.13;;;0.60;;
40945;SDS011;55635;50.264;11.918;2023-07-13T00:05:37;0.82;;;0.70;;
40945;SDS011;55635;50.264;11.918;2023-07-13T00:08:18;4.40;;;0.85;;
40945;SDS011;55635;50.264;11.918;2023-07-13T00:11:02;2.13;;;0.85;;
40945;SDS011;55635;50.264;11.918;2023-07-13T00:13:43;2.83;;;1.23;;
40945;SDS011;55635;50.264;11.918;2023-07-13T00:16:24;1.05;;;0.70;;
40945;SDS011;55635;50.264;11.918;2023-07-13T00:19:05;3.90;;;1.15;;
40945;SDS011;55635;50.264;11.918;2023-07-13T00:21:46;2.58;;;0.90;;
40945;SDS011;55635;50.264;11.918;2023-07-13T00:24:28;3.53;;;1.33;;
40945;SDS011;55635;50.264;11.918;2023-07-13T00:27:09;1.00;;;0.85;;
40945;SDS011;55635;50.264;11.918;2023-07-13T00:29:51;1.30;;;0.80;;
40945;SDS011;55635;50.264;11.918;2023-07-13T00:32:33;1.98;;;0.80;;
40945;SDS011;55635;50.264;11.918;2023-07-13T00:35:14;1.52;;;1.00;;
40945;SDS011;55635;50.264;11.918;2023-07-13T00:37:55;2.20;;;0.93;;
40945;SDS011;55635;50.264;11.918;2023-07-13T00:40:38;4.47;;;1.00;;
40945;SDS011;55635;50.264;11.918;2023-07-13T00:43:20;1.73;;;0.70;;
40945;SDS011;55635;50.264;11.918;2023-07-13T00:46:12;1.38;;;0.80;;
40945;SDS011;55635;50.264;11.918;2023-07-13T00:49:01;1.80;;;1.23;;
40945;SDS011;55635;50.264;11.918;2023-07-13T00:54:43;2.13;;;1.10;;
40945;SDS011;55635;50.264;11.918;2023-07-13T00:57:26;3.08;;;1.00;;
40945;SDS011;55635;50.264;11.918;2023-07-13T01:00:07;2.17;;;1.20;;
40945;SDS011;55635;50.264;11.918;2023-07-13T01:02:50;1.75;;;0.93;;
40945;SDS011;55635;50.264;11.918;2023-07-13T01:05:32;1.20;;;0.90;;
40945;SDS011;55635;50.264;11.918;2023-07-13T01:08:14;3.65;;;1.20;;
40945;SDS011;55635;50.264;11.918;2023-07-13T01:10:57;2.60;;;1.20;;
40945;SDS011;55635;50.264;11.918;2023-07-13T01:13:38;1.92;;;1.30;;
40945;SDS011;55635;50.264;11.918;2023-07-13T01:16:26;1.38;;;0.98;;
40945;SDS011;55635;50.264;11.918;2023-07-13T01:19:18;1.95;;;1.20;;
40945;SDS011;55635;50.264;11.918;2023-07-13T01:22:19;2.53;;;1.20;;
40945;SDS011;55635;50.264;11.918;2023-07-13T01:25:05;2.72;;;1.20;;
40945;SDS011;55635;50.264;11.918;2023-07-13T01:27:46;3.50;;;0.85;;
40945;SDS011;55635;50.264;11.918;2023-07-13T01:30:27;3.20;;;1.23;;
40945;SDS011;55635;50.264;11.918;2023-07-13T01:33:09;1.63;;;0.90;;
40945;SDS011;55635;50.264;11.918;2023-07-13T01:35:50;3.75;;;0.90;;
40945;SDS011;55635;50.264;11.918;2023-07-13T01:38:31;1.38;;;1.27;;
40945;SDS011;55635;50.264;11.918;2023-07-13T01:41:15;1.00;;;0.90;;
40945;SDS011;55635;50.264;11.918;2023-07-13T01:43:56;5.00;;;1.10;;
40945;SDS011;55635;50.264;11.918;2023-07-13T01:46:37;5.25;;;1.30;;
40945;SDS011;55635;50.264;11.918;2023-07-13T01:49:18;1.83;;;1.25;;
40945;SDS011;55635;50.264;11.918;2023-07-13T01:51:59;1.60;;;1.05;;
40945;SDS011;55635;50.264;11.918;2023-07-13T01:54:40;3.10;;;0.98;;
40945;SDS011;55635;50.264;11.918;2023-07-13T01:57:23;3.50;;;1.30;;
40945;SDS011;55635;50.264;11.918;2023-07-13T02:00:04;2.30;;;1.00;;
40945;SDS011;55635;50.264;11.918;2023-07-13T02:02:55;1.00;;;0.80;;
40945;SDS011;55635;50.264;11.918;2023-07-13T02:05:37;2.15;;;1.00;;
40945;SDS011;55635;50.264;11.918;2023-07-13T02:08:17;1.02;;;0.93;;
40945;SDS011;55635;50.264;11.918;2023-07-13T02:10:58;2.00;;;0.90;;
40945;SDS011;55635;50.264;11.918;2023-07-13T02:13:40;1.40;;;0.98;;
40945;SDS011;55635;50.264;11.918;2023-07-13T02:16:21;1.42;;;1.27;;
40945;SDS011;55635;50.264;11.918;2023-07-13T02:19:02;4.10;;;0.90;;
40945;SDS011;55635;50.264;11.918;2023-07-13T02:21:43;2.92;;;1.10;;
40945;SDS011;55635;50.264;11.918;2023-07-13T02:24:25;4.90;;;1.45;;
40945;SDS011;55635;50.264;11.918;2023-07-13T02:27:06;2.83;;;1.50;;
40945;SDS011;55635;50.264;11.918;2023-07-13T02:29:47;2.95;;;1.15;;
40945;SDS011;55635;50.264;11.918;2023-07-13T02:32:34;1.88;;;1.13;;
40945;SDS011;55635;50.264;11.918;2023-07-13T02:35:15;1.35;;;1.10;;
40945;SDS011;55635;50.264;11.918;2023-07-13T02:37:56;2.78;;;1.40;;
40945;SDS011;55635;50.264;11.918;2023-07-13T02:40:37;1.38;;;1.02;;
40945;SDS011;55635;50.264;11.918;2023-07-13T02:43:18;2.85;;;1.52;;
40945;SDS011;55635;50.264;11.918;2023-07-13T02:46:01;2.33;;;1.40;;
40945;SDS011;55635;50.264;11.918;2023-07-13T02:48:48;1.33;;;1.23;;
40945;SDS011;55635;50.264;11.918;2023-07-13T02:51:29;1.48;;;1.20;;
40945;SDS011;55635;50.264;11.918;2023-07-13T02:54:14;1.45;;;1.20;;
40945;SDS011;55635;50.264;11.918;2023-07-13T02:56:55;2.05;;;1.40;;
40945;SDS011;55635;50.264;11.918;2023-07-13T02:59:36;2.33;;;1.60;;
40945;SDS011;55635;50.264;11.918;2023-07-13T03:02:17;4.45;;;1.60;;
40945;SDS011;55635;50.264;11.918;2023-07-13T03:04:58;4.43;;;1.60;;
40945;SDS011;55635;50.264;11.918;2023-07-13T03:07:39;2.85;;;1.20;;
40945;SDS011;55635;50.264;11.918;2023-07-13T03:10:20;3.13;;;1.67;;
40945;SDS011;55635;50.264;11.918;2023-07-13T03:13:04;5.28;;;1.65;;
40945;SDS011;55635;50.264;11.918;2023-07-13T03:15:48;2.20;;;1.65;;
40945;SDS011;55635;50.264;11.918;2023-07-13T03:18:29;4.78;;;1.70;;
40945;SDS011;55635;50.264;11.918;2023-07-13T03:21:14;4.20;;;1.95;;
40945;SDS011;55635;50.264;11.918;2023-07-13T03:23:56;2.35;;;1.58;;
40945;SDS011;55635;50.264;11.918;2023-07-13T03:26:37;1.15;;;1.05;;
40945;SDS011;55635;50.264;11.918;2023-07-13T03:29:20;2.70;;;1.30;;
40945;SDS011;55635;50.264;11.918;2023-07-13T03:32:01;1.83;;;1.40;;
40945;SDS011;55635;50.264;11.918;2023-07-13T03:34:46;5.20;;;1.85;;
40945;SDS011;55635;50.264;11.918;2023-07-13T03:37:27;4.18;;;1.90;;
40945;SDS011;55635;50.264;11.918;2023-07-13T03:40:09;1.70;;;1.60;;
40945;SDS011;55635;50.264;11.918;2023-07-13T03:42:52;3.15;;;1.45;;
40945;SDS011;55635;50.264;11.918;2023-07-13T03:45:40;2.42;;;2.03;;
40945;SDS011;55635;50.264;11.918;2023-07-13T03:48:21;6.07;;;2.25;;
40945;SDS011;55635;50.264;11.918;2023-07-13T03:51:02;3.50;;;1.48;;
40945;SDS011;55635;50.264;11.918;2023-07-13T03:53:44;2.47;;;1.50;;
40945;SDS011;55635;50.264;11.918;2023-07-13T03:56:28;2.97;;;1.58;;
40945;SDS011;55635;50.264;11.918;2023-07-13T03:59:15;1.65;;;1.55;;
40945;SDS011;55635;50.264;11.918;2023-07-13T04:01:56;2.45;;;1.42;;
40945;SDS011;55635;50.264;11.918;2023-07-13T04:04:37;1.85;;;1.75;;
40945;SDS011;55635;50.264;11.918;2023-07-13T04:07:20;4.43;;;1.60;;
40945;SDS011;55635;50.264;11.918;2023-07-13T04:10:01;1.75;;;1.35;;
40945;SDS011;55635;50.264;11.918;2023-07-13T04:12:44;6.03;;;1.70;;
40945;SDS011;55635;50.264;11.918;2023-07-13T04:15:30;1.83;;;1.50;;
40945;SDS011;55635;50.264;11.918;2023-07-13T04:18:12;2.15;;;1.90;;
40945;SDS011;55635;50.264;11.918;2023-07-13T04:20:53;5.53;;;2.00;;
40945;SDS011;55635;50.264;11.918;2023-07-13T04:23:34;1.77;;;1.67;;
40945;SDS011;55635;50.264;11.918;2023-07-13T04:26:16;2.17;;;1.60;;
40945;SDS011;55635;50.264;11.918;2023-07-13T04:28:59;2.25;;;1.70;;
40945;SDS011;55635;50.264;11.918;2023-07-13T04:31:40;4.22;;;1.70;;
40945;SDS011;55635;50.264;11.918;2023-07-13T04:34:21;1.98;;;1.75;;
40945;SDS011;55635;50.264;11.918;2023-07-13T04:37:02;3.97;;;1.88;;
40945;SDS011;55635;50.264;11.918;2023-07-13T04:39:44;5.13;;;2.30;;
40945;SDS011;55635;50.264;11.918;2023-07-13T04:42:25;1.92;;;1.77;;
40945;SDS011;55635;50.264;11.918;2023-07-13T04:45:06;4.82;;;1.92;;
40945;SDS011;55635;50.264;11.918;2023-07-13T04:47:47;3.17;;;2.08;;
40945;SDS011;55635;50.264;11.918;2023-07-13T04:50:28;3.08;;;1.98;;
40945;SDS011;55635;50.264;11.918;2023-07-13T04:53:10;1.98;;;1.77;;
40945;SDS011;55635;50.264;11.918;2023-07-13T04:55:51;1.80;;;1.70;;
40945;SDS011;55635;50.264;11.918;2023-07-13T04:58:32;3.88;;;1.70;;
40945;SDS011;55635;50.264;11.918;2023-07-13T05:01:14;2.05;;;1.80;;
40945;SDS011;55635;50.264;11.918;2023-07-13T05:03:54;2.72;;;1.75;;
40945;SDS011;55635;50.264;11.918;2023-07-13T05:06:37;2.72;;;1.95;;
40945;SDS011;55635;50.264;11.918;2023-07-13T05:09:18;2.30;;;1.88;;
40945;SDS011;55635;50.264;11.918;2023-07-13T05:11:59;2.00;;;1.60;;
40945;SDS011;55635;50.264;11.918;2023-07-13T05:14:40;4.93;;;1.50;;
40945;SDS011;55635;50.264;11.918;2023-07-13T05:17:21;3.53;;;1.70;;
40945;SDS011;55635;50.264;11.918;2023-07-13T05:20:02;3.03;;;2.28;;
40945;SDS011;55635;50.264;11.918;2023-07-13T05:22:43;4.65;;;1.90;;
40945;SDS011;55635;50.264;11.918;2023-07-13T05:25:27;4.10;;;2.20;;
40945;SDS011;55635;50.264;11.918;2023-07-13T05:28:07;4.88;;;1.90;;
40945;SDS011;55635;50.264;11.918;2023-07-13T05:30:49;2.38;;;1.73;;
40945;SDS011;55635;50.264;11.918;2023-07-13T05:33:31;2.13;;;1.77;;
40945;SDS011;55635;50.264;11.918;2023-07-13T05:36:12;2.00;;;1.80;;
40945;SDS011;55635;50.264;11.918;2023-07-13T05:38:53;2.78;;;1.90;;
40945;SDS011;55635;50.264;11.918;2023-07-13T05:41:34;2.97;;;1.73;;
40945;SDS011;55635;50.264;11.918;2023-07-13T05:44:15;3.05;;;1.73;;
40945;SDS011;55635;50.264;11.918;2023-07-13T05:46:56;3.83;;;1.58;;
40945;SDS011;55635;50.264;11.918;2023-07-13T05:49:37;4.90;;;1.40;;
40945;SDS011;55635;50.264;11.918;2023-07-13T05:52:18;1.85;;;1.25;;
40945;SDS011;55635;50.264;11.918;2023-07-13T05:54:59;4.35;;;1.45;;
40945;SDS011;55635;50.264;11.918;2023-07-13T05:57:40;4.28;;;1.70;;
40945;SDS011;55635;50.264;11.918;2023-07-13T06:00:21;1.50;;;1.20;;
40945;SDS011;55635;50.264;11.918;2023-07-13T06:03:02;4.78;;;1.65;;
40945;SDS011;55635;50.264;11.918;2023-07-13T06:05:43;2.40;;;1.17;;
40945;SDS011;55635;50.264;11.918;2023-07-13T06:08:24;5.75;;;1.52;;
40945;SDS011;55635;50.264;11.918;2023-07-13T06:11:06;4.13;;;1.20;;
40945;SDS011;55635;50.264;11.918;2023-07-13T06:13:50;1.45;;;1.15;;
40945;SDS011;55635;50.264;11.918;2023-07-13T06:16:31;3.03;;;1.00;;
40945;SDS011;55635;50.264;11.918;2023-07-13T06:19:12;2.60;;;1.30;;
40945;SDS011;55635;50.264;11.918;2023-07-13T06:21:53;1.67;;;0.93;;
40945;SDS011;55635;50.264;11.918;2023-07-13T06:24:34;4.53;;;1.73;;
40945;SDS011;55635;50.264;11.918;2023-07-13T06:27:18;2.00;;;0.80;;
40945;SDS011;55635;50.264;11.918;2023-07-13T06:29:59;2.75;;;1.20;;
40945;SDS011;55635;50.264;11.918;2023-07-13T06:32:43;2.13;;;1.20;;
40945;SDS011;55635;50.264;11.918;2023-07-13T06:35:24;5.88;;;1.17;;
40945;SDS011;55635;50.264;11.918;2023-07-13T06:38:05;2.30;;;0.80;;
40945;SDS011;55635;50.264;11.918;2023-07-13T06:40:46;1.33;;;1.02;;
40945;SDS011;55635;50.264;11.918;2023-07-13T06:43:27;1.65;;;1.13;;
40945;SDS011;55635;50.264;11.918;2023-07-13T06:46:09;1.60;;;1.02;;
40945;SDS011;55635;50.264;11.918;2023-07-13T06:48:50;1.65;;;0.80;;
40945;SDS011;55635;50.264;11.918;2023-07-13T06:51:31;4.53;;;0.90;;
40945;SDS011;55635;50.264;11.918;2023-07-13T06:54:13;3.38;;;1.05;;
40945;SDS011;55635;50.264;11.918;2023-07-13T06:56:54;3.08;;;1.10;;
40945;SDS011;55635;50.264;11.918;2023-07-13T06:59:34;3.95;;;1.27;;
40945;SDS011;55635;50.264;11.918;2023-07-13T07:02:15;2.38;;;0.90;;
40945;SDS011;55635;50.264;11.918;2023-07-13T07:04:56;3.83;;;0.90;;
40945;SDS011;55635;50.264;11.918;2023-07-13T07:07:37;4.68;;;1.00;;
40945;SDS011;55635;50.264;11.918;2023-07-13T07:10:18;5.72;;;1.27;;
40945;SDS011;55635;50.264;11.918;2023-07-13T07:13:00;5.53;;;0.98;;
40945;SDS011;55635;50.264;11.918;2023-07-13T07:15:41;4.93;;;0.95;;
40945;SDS011;55635;50.264;11.918;2023-07-13T07:18:22;3.58;;;1.17;;
40945;SDS011;55635;50.264;11.918;2023-07-13T07:21:03;2.30;;;1.00;;
40945;SDS011;55635;50.264;11.918;2023-07-13T07:23:45;2.88;;;1.00;;
40945;SDS011;55635;50.264;11.918;2023-07-13T07:26:26;6.07;;;1.48;;
40945;SDS011;55635;50.264;11.918;2023-07-13T07:29:07;6.68;;;1.20;;
40945;SDS011;55635;50.264;11.918;2023-07-13T07:31:49;2.33;;;1.10;;
40945;SDS011;55635;50.264;11.918;2023-07-13T07:34:30;4.38;;;1.50;;
40945;SDS011;55635;50.264;11.918;2023-07-13T07:37:12;3.40;;;1.30;;
40945;SDS011;55635;50.264;11.918;2023-07-13T07:39:54;3.35;;;0.90;;
40945;SDS011;55635;50.264;11.918;2023-07-13T07:42:35;4.60;;;1.30;;
40945;SDS011;55635;50.264;11.918;2023-07-13T07:45:16;3.10;;;0.90;;
40945;SDS011;55635;50.264;11.918;2023-07-13T07:47:57;2.47;;;0.90;;
40945;SDS011;55635;50.264;11.918;2023-07-13T07:50:39;4.03;;;1.10;;
40945;SDS011;55635;50.264;11.918;2023-07-13T07:53:20;4.85;;;1.00;;
40945;SDS011;55635;50.264;11.918;2023-07-13T07:56:01;2.65;;;1.25;;
40945;SDS011;55635;50.264;11.918;2023-07-13T07:58:42;1.77;;;1.00;;
40945;SDS011;55635;50.264;11.918;2023-07-13T08:01:23;3.15;;;1.15;;
40945;SDS011;55635;50.264;11.918;2023-07-13T08:04:04;5.03;;;0.90;;
40945;SDS011;55635;50.264;11.918;2023-07-13T08:06:45;3.03;;;1.13;;
40945;SDS011;55635;50.264;11.918;2023-07-13T08:09:26;3.28;;;1.20;;
40945;SDS011;55635;50.264;11.918;2023-07-13T08:12:07;4.55;;;1.23;;
40945;SDS011;55635;50.264;11.918;2023-07-13T08:14:51;1.73;;;0.88;;
40945;SDS011;55635;50.264;11.918;2023-07-13T08:17:37;2.67;;;1.20;;
40945;SDS011;55635;50.264;11.918;2023-07-13T08:20:18;8.93;;;1.50;;
40945;SDS011;55635;50.264;11.918;2023-07-13T08:22:59;1.23;;;0.90;;
40945;SDS011;55635;50.264;11.918;2023-07-13T08:25:40;2.45;;;1.00;;
40945;SDS011;55635;50.264;11.918;2023-07-13T08:28:21;1.42;;;0.90;;
40945;SDS011;55635;50.264;11.918;2023-07-13T08:31:03;1.83;;;0.93;;
40945;SDS011;55635;50.264;11.918;2023-07-13T08:33:45;2.20;;;0.95;;
40945;SDS011;55635;50.264;11.918;2023-07-13T08:36:26;1.90;;;1.00;;
40945;SDS011;55635;50.264;11.918;2023-07-13T08:39:08;2.13;;;0.85;;
40945;SDS011;55635;50.264;11.918;2023-07-13T08:41:50;4.50;;;1.00;;
40945;SDS011;55635;50.264;11.918;2023-07-13T08:44:42;1.90;;;1.10;;
40945;SDS011;55635;50.264;11.918;2023-07-13T08:47:45;1.80;;;1.05;;
40945;SDS011;55635;50.264;11.918;2023-07-13T08:50:48;2.92;;;1.45;;
40945;SDS011;55635;50.264;11.918;2023-07-13T08:54:01;3.67;;;1.00;;
40945;SDS011;55635;50.264;11.918;2023-07-13T08:56:50;2.15;;;0.98;;
40945;SDS011;55635;50.264;11.918;2023-07-13T08:59:34;3.65;;;1.10;;
40945;SDS011;55635;50.264;11.918;2023-07-13T09:05:38;4.88;;;1.08;;
40945;SDS011;55635;50.264;11.918;2023-07-13T09:17:31;4.25;;;1.27;;
40945;SDS011;55635;50.264;11.918;2023-07-13T09:23:23;2.08;;;0.90;;
40945;SDS011;55635;50.264;11.918;2023-07-13T09:29:03;6.88;;;1.08;;
40945;SDS011;55635;50.264;11.918;2023-07-13T09:31:57;2.22;;;1.08;;
40945;SDS011;55635;50.264;11.918;2023-07-13T09:34:45;1.92;;;1.00;;
40945;SDS011;55635;50.264;11.918;2023-07-13T09:37:32;3.17;;;1.58;;
40945;SDS011;55635;50.264;11.918;2023-07-13T09:40:19;3.90;;;1.23;;
40945;SDS011;55635;50.264;11.918;2023-07-13T09:43:08;5.28;;;1.70;;
40945;SDS011;55635;50.264;11.918;2023-07-13T09:45:55;3.58;;;1.00;;
40945;SDS011;55635;50.264;11.918;2023-07-13T09:48:36;4.18;;;0.93;;
40945;SDS011;55635;50.264;11.918;2023-07-13T09:51:17;1.35;;;1.02;;
40945;SDS011;55635;50.264;11.918;2023-07-13T09:53:58;4.75;;;1.10;;
40945;SDS011;55635;50.264;11.918;2023-07-13T09:56:39;7.82;;;1.23;;
40945;SDS011;55635;50.264;11.918;2023-07-13T09:59:21;4.13;;;1.17;;
40945;SDS011;55635;50.264;11.918;2023-07-13T10:02:22;2.33;;;1.05;;
40945;SDS011;55635;50.264;11.918;2023-07-13T10:05:14;5.10;;;1.17;;
40945;SDS011;55635;50.264;11.918;2023-07-13T10:07:56;1.88;;;1.10;;
40945;SDS011;55635;50.264;11.918;2023-07-13T10:10:37;2.67;;;0.77;;
40945;SDS011;55635;50.264;11.918;2023-07-13T10:13:25;4.10;;;1.13;;
40945;SDS011;55635;50.264;11.918;2023-07-13T10:16:14;1.30;;;0.82;;
40945;SDS011;55635;50.264;11.918;2023-07-13T10:18:59;4.68;;;1.05;;
40945;SDS011;55635;50.264;11.918;2023-07-13T10:21:55;3.08;;;1.10;;
40945;SDS011;55635;50.264;11.918;2023-07-13T10:24:39;2.13;;;1.03;;
40945;SDS011;55635;50.264;11.918;2023-07-13T10:27:39;1.58;;;1.00;;
40945;SDS011;55635;50.264;11.918;2023-07-13T10:30:27;0.93;;;0.70;;
40945;SDS011;55635;50.264;11.918;2023-07-13T10:33:14;2.38;;;0.90;;
40945;SDS011;55635;50.264;11.918;2023-07-13T10:36:05;1.45;;;0.90;;
40945;SDS011;55635;50.264;11.918;2023-07-13T10:39:03;1.30;;;0.70;;
40945;SDS011;55635;50.264;11.918;2023-07-13T10:41:46;2.28;;;1.00;;
40945;SDS011;55635;50.264;11.918;2023-07-13T10:44:42;1.50;;;0.80;;
40945;SDS011;55635;50.264;11.918;2023-07-13T10:47:23;1.15;;;0.85;;
40945;SDS011;55635;50.264;11.918;2023-07-13T10:50:08;1.65;;;0.70;;
40945;SDS011;55635;50.264;11.918;2023-07-13T10:53:01;1.25;;;0.90;;
40945;SDS011;55635;50.264;11.918;2023-07-13T10:56:02;1.83;;;0.80;;
40945;SDS011;55635;50.264;11.918;2023-07-13T10:58:48;3.40;;;1.10;;
40945;SDS011;55635;50.264;11.918;2023-07-13T11:04:59;2.05;;;0.90;;
40945;SDS011;55635;50.264;11.918;2023-07-13T11:11:45;0.82;;;0.63;;
40945;SDS011;55635;50.264;11.918;2023-07-13T11:17:32;1.58;;;0.80;;
40945;SDS011;55635;50.264;11.918;2023-07-13T11:20:33;2.17;;;0.70;;
40945;SDS011;55635;50.264;11.918;2023-07-13T11:23:29;4.55;;;0.70;;
40945;SDS011;55635;50.264;11.918;2023-07-13T11:32:22;2.50;;;0.65;;
40945;SDS011;55635;50.264;11.918;2023-07-13T11:35:13;2.92;;;0.60;;
40945;SDS011;55635;50.264;11.918;2023-07-13T11:38:09;0.85;;;0.57;;
40945;SDS011;55635;50.264;11.918;2023-07-13T11:41:06;1.85;;;0.50;;
40945;SDS011;55635;50.264;11.918;2023-07-13T11:44:05;0.40;;;0.30;;
40945;SDS011;55635;50.264;11.918;2023-07-13T11:47:09;1.00;;;0.50;;
40945;SDS011;55635;50.264;11.918;2023-07-13T11:49:58;0.65;;;0.40;;
40945;SDS011;55635;50.264;11.918;2023-07-13T11:52:39;1.15;;;0.38;;
40945;SDS011;55635;50.264;11.918;2023-07-13T11:55:21;0.47;;;0.32;;
40945;SDS011;55635;50.264;11.918;2023-07-13T11:58:04;0.90;;;0.60;;
40945;SDS011;55635;50.264;11.918;2023-07-13T12:00:45;0.63;;;0.40;;
40945;SDS011;55635;50.264;11.918;2023-07-13T12:03:27;2.05;;;0.40;;
40945;SDS011;55635;50.264;11.918;2023-07-13T12:06:19;0.63;;;0.40;;
40945;SDS011;55635;50.264;11.918;2023-07-13T12:09:13;0.82;;;0.50;;
40945;SDS011;55635;50.264;11.918;2023-07-13T12:12:00;1.95;;;0.30;;
40945;SDS011;55635;50.264;11.918;2023-07-13T12:14:41;2.55;;;0.50;;
40945;SDS011;55635;50.264;11.918;2023-07-13T12:17:23;0.50;;;0.38;;
40945;SDS011;55635;50.264;11.918;2023-07-13T12:20:17;0.95;;;0.32;;
40945;SDS011;55635;50.264;11.918;2023-07-13T12:23:06;3.97;;;0.43;;
40945;SDS011;55635;50.264;11.918;2023-07-13T12:26:05;1.38;;;0.88;;
40945;SDS011;55635;50.264;11.918;2023-07-13T12:28:52;2.08;;;0.40;;
40945;SDS011;55635;50.264;11.918;2023-07-13T12:31:39;3.05;;;0.40;;
40945;SDS011;55635;50.264;11.918;2023-07-13T12:34:25;0.50;;;0.30;;
40945;SDS011;55635;50.264;11.918;2023-07-13T12:37:08;3.00;;;0.38;;
40945;SDS011;55635;50.264;11.918;2023-07-13T12:39:54;0.88;;;0.32;;
40945;SDS011;55635;50.264;11.918;2023-07-13T12:42:35;1.08;;;0.40;;
40945;SDS011;55635;50.264;11.918;2023-07-13T12:45:22;1.65;;;0.50;;
40945;SDS011;55635;50.264;11.918;2023-07-13T12:48:15;2.80;;;0.50;;
40945;SDS011;55635;50.264;11.918;2023-07-13T12:53:41;1.67;;;0.50;;
40945;SDS011;55635;50.264;11.918;2023-07-13T12:56:30;0.60;;;0.30;;
40945;SDS011;55635;50.264;11.918;2023-07-13T12:59:17;1.83;;;0.45;;
40945;SDS011;55635;50.264;11.918;2023-07-13T13:02:05;0.43;;;0.40;;
40945;SDS011;55635;50.264;11.918;2023-07-13T13:05:14;0.90;;;0.40;;
40945;SDS011;55635;50.264;11.918;2023-07-13T13:07:55;3.05;;;0.43;;
40945;SDS011;55635;50.264;11.918;2023-07-13T13:10:36;0.38;;;0.22;;
40945;SDS011;55635;50.264;11.918;2023-07-13T13:13:17;0.73;;;0.35;;
40945;SDS011;55635;50.264;11.918;2023-07-13T13:16:04;1.58;;;0.40;;
40945;SDS011;55635;50.264;11.918;2023-07-13T13:19:18;2.13;;;0.43;;
40945;SDS011;55635;50.264;11.918;2023-07-13T13:22:09;0.63;;;0.40;;
40945;SDS011;55635;50.264;11.918;2023-07-13T13:24:50;0.40;;;0.40;;
40945;SDS011;55635;50.264;11.918;2023-07-13T13:27:31;0.77;;;0.30;;
40945;SDS011;55635;50.264;11.918;2023-07-13T13:30:12;1.02;;;0.70;;
40945;SDS011;55635;50.264;11.918;2023-07-13T13:32:55;1.33;;;0.38;;
40945;SDS011;55635;50.264;11.918;2023-07-13T13:35:36;1.50;;;0.50;;
40945;SDS011;55635;50.264;11.918;2023-07-13T13:38:23;1.20;;;0.50;;
40945;SDS011;55635;50.264;11.918;2023-07-13T13:43:51;1.77;;;0.40;;
40945;SDS011;55635;50.264;11.918;2023-07-13T13:46:32;0.50;;;0.38;;
40945;SDS011;55635;50.264;11.918;2023-07-13T13:49:13;0.70;;;0.40;;
40945;SDS011;55635;50.264;11.918;2023-07-13T13:51:58;0.75;;;0.32;;
40945;SDS011;55635;50.264;11.918;2023-07-13T13:54:39;0.47;;;0.30;;
40945;SDS011;55635;50.264;11.918;2023-07-13T13:57:20;1.13;;;0.52;;
40945;SDS011;55635;50.264;11.918;2023-07-13T14:00:03;1.67;;;0.50;;
40945;SDS011;55635;50.264;11.918;2023-07-13T14:02:45;2.38;;;0.50;;
40945;SDS011;55635;50.264;11.918;2023-07-13T14:05:31;1.45;;;0.50;;
40945;SDS011;55635;50.264;11.918;2023-07-13T14:08:16;1.33;;;0.50;;
40945;SDS011;55635;50.264;11.918;2023-07-13T14:10:59;0.88;;;0.47;;
40945;SDS011;55635;50.264;11.918;2023-07-13T14:13:42;2.45;;;0.90;;
40945;SDS011;55635;50.264;11.918;2023-07-13T14:16:29;2.30;;;0.95;;
40945;SDS011;55635;50.264;11.918;2023-07-13T14:19:12;0.73;;;0.70;;
40945;SDS011;55635;50.264;11.918;2023-07-13T14:21:54;3.42;;;0.70;;
40945;SDS011;55635;50.264;11.918;2023-07-13T14:24:35;1.17;;;0.73;;
40945;SDS011;55635;50.264;11.918;2023-07-13T14:27:16;1.25;;;0.77;;
40945;SDS011;55635;50.264;11.918;2023-07-13T14:29:57;2.13;;;1.08;;
40945;SDS011;55635;50.264;11.918;2023-07-13T14:32:38;2.15;;;0.82;;
40945;SDS011;55635;50.264;11.918;2023-07-13T14:35:20;2.63;;;0.98;;
40945;SDS011;55635;50.264;11.918;2023-07-13T14:38:03;1.73;;;0.65;;
40945;SDS011;55635;50.264;11.918;2023-07-13T14:40:45;0.88;;;0.57;;
40945;SDS011;55635;50.264;11.918;2023-07-13T14:43:26;2.78;;;0.70;;
40945;SDS011;55635;50.264;11.918;2023-07-13T14:46:18;0.85;;;0.60;;
40945;SDS011;55635;50.264;11.918;2023-07-13T14:52:08;2.95;;;0.43;;
40945;SDS011;55635;50.264;11.918;2023-07-13T14:55:03;1.55;;;0.80;;
40945;SDS011;55635;50.264;11.918;2023-07-13T14:57:49;3.00;;;0.93;;
40945;SDS011;55635;50.264;11.918;2023-07-13T15:00:30;2.75;;;0.77;;
40945;SDS011;55635;50.264;11.918;2023-07-13T15:03:17;1.77;;;0.50;;
40945;SDS011;55635;50.264;11.918;2023-07-13T15:06:02;0.98;;;0.50;;
40945;SDS011;55635;50.264;11.918;2023-07-13T15:08:43;0.95;;;0.52;;
40945;SDS011;55635;50.264;11.918;2023-07-13T15:11:24;1.73;;;0.68;;
40945;SDS011;55635;50.264;11.918;2023-07-13T15:14:05;2.20;;;0.75;;
40945;SDS011;55635;50.264;11.918;2023-07-13T15:16:46;1.73;;;0.70;;
40945;SDS011;55635;50.264;11.918;2023-07-13T15:19:31;2.35;;;0.80;;
40945;SDS011;55635;50.264;11.918;2023-07-13T15:22:12;1.75;;;0.50;;
40945;SDS011;55635;50.264;11.918;2023-07-13T15:24:53;2.25;;;0.70;;
40945;SDS011;55635;50.264;11.918;2023-07-13T15:27:34;0.80;;;0.60;;
40945;SDS011;55635;50.264;11.918;2023-07-13T15:30:17;4.22;;;0.70;;
40945;SDS011;55635;50.264;11.918;2023-07-13T15:33:00;1.60;;;0.88;;
40945;SDS011;55635;50.264;11.918;2023-07-13T15:35:54;1.90;;;0.88;;
40945;SDS011;55635;50.264;11.918;2023-07-13T15:38:36;2.30;;;0.63;;
40945;SDS011;55635;50.264;11.918;2023-07-13T15:41:25;0.70;;;0.70;;
40945;SDS011;55635;50.264;11.918;2023-07-13T15:44:31;1.27;;;0.70;;
40945;SDS011;55635;50.264;11.918;2023-07-13T15:47:13;2.38;;;0.90;;
40945;SDS011;55635;50.264;11.918;2023-07-13T15:49:55;2.30;;;1.00;;
40945;SDS011;55635;50.264;11.918;2023-07-13T15:52:38;2.08;;;0.82;;
40945;SDS011;55635;50.264;11.918;2023-07-13T15:55:19;2.22;;;1.13;;
40945;SDS011;55635;50.264;11.918;2023-07-13T15:58:02;1.42;;;0.85;;
40945;SDS011;55635;50.264;11.918;2023-07-13T16:00:43;1.42;;;0.98;;
40945;SDS011;55635;50.264;11.918;2023-07-13T16:03:24;1.50;;;0.85;;
40945;SDS011;55635;50.264;11.918;2023-07-13T16:06:48;1.48;;;0.73;;
40945;SDS011;55635;50.264;11.918;2023-07-13T16:12:04;3.03;;;1.08;;
40945;SDS011;55635;50.264;11.918;2023-07-13T16:14:52;1.98;;;0.70;;
40945;SDS011;55635;50.264;11.918;2023-07-13T16:17:33;1.80;;;0.50;;
40945;SDS011;55635;50.264;11.918;2023-07-13T16:20:14;1.70;;;0.95;;
40945;SDS011;55635;50.264;11.918;2023-07-13T16:22:56;1.38;;;0.90;;
40945;SDS011;55635;50.264;11.918;2023-07-13T16:25:37;5.18;;;0.85;;
40945;SDS011;55635;50.264;11.918;2023-07-13T16:28:19;4.47;;;0.80;;
40945;SDS011;55635;50.264;11.918;2023-07-13T16:31:00;1.42;;;0.82;;
40945;SDS011;55635;50.264;11.918;2023-07-13T16:33:42;2.58;;;0.85;;
40945;SDS011;55635;50.264;11.918;2023-07-13T16:36:23;2.65;;;0.80;;
40945;SDS011;55635;50.264;11.918;2023-07-13T16:39:11;1.92;;;0.80;;
40945;SDS011;55635;50.264;11.918;2023-07-13T16:44:37;1.00;;;0.60;;
40945;SDS011;55635;50.264;11.918;2023-07-13T16:47:20;2.45;;;0.80;;
40945;SDS011;55635;50.264;11.918;2023-07-13T16:50:13;1.55;;;0.75;;
40945;SDS011;55635;50.264;11.918;2023-07-13T16:52:59;2.25;;;1.00;;
40945;SDS011;55635;50.264;11.918;2023-07-13T16:55:45;2.83;;;1.10;;
40945;SDS011;55635;50.264;11.918;2023-07-13T16:58:27;1.33;;;0.90;;
40945;SDS011;55635;50.264;11.918;2023-07-13T17:01:11;2.45;;;0.85;;
40945;SDS011;55635;50.264;11.918;2023-07-13T17:03:52;1.02;;;0.60;;